sensor_id;sensor_type;location;lat;lon;timestamp;P1;durP1;ratioP1;P2;durP2;ratioP2
73693;SDS011;61997;53.974;11.670;2023-11-19T00:01:48;11.57;;;7.30;;
73693;SDS011;61997;53.974;11.670;2023-11-19T00:04:14;12.05;;;7.47;;
73693;SDS011;61997;53.974;11.670;2023-11-19T00:06:39;15.95;;;7.45;;
73693;SDS011;61997;53.974;11.670;2023-11-19T00:09:04;15.38;;;8.70;;
73693;SDS011;61997;53.974;11.670;2023-11-19T00:11:30;12.15;;;7.40;;
73693;SDS011;61997;53.974;11.670;2023-11-19T00:13:55;12.88;;;7.82;;
73693;SDS011;61997;53.974;11.670;2023-11-19T00:16:21;14.15;;;7.75;;
73693;SDS011;61997;53.974;11.670;2023-11-19T00:18:46;14.60;;;8.07;;
73693;SDS011;61997;53.974;11.670;2023-11-19T00:21:11;11.57;;;7.47;;
73693;SDS011;61997;53.974;11.670;2023-11-19T00:23:37;15.50;;;7.97;;
73693;SDS011;61997;53.974;11.670;2023-11-19T00:26:03;12.68;;;8.10;;
73693;SDS011;61997;53.974;11.670;2023-11-19T00:28:31;13.50;;;8.00;;
73693;SDS011;61997;53.974;11.670;2023-11-19T00:30:58;13.23;;;7.13;;
73693;SDS011;61997;53.974;11.670;2023-11-19T00:33:23;14.77;;;7.90;;
73693;SDS011;61997;53.974;11.670;2023-11-19T00:35:49;14.10;;;8.45;;
73693;SDS011;61997;53.974;11.670;2023-11-19T00:38:15;15.90;;;8.02;;
73693;SDS011;61997;53.974;11.670;2023-11-19T00:40:40;17.23;;;8.20;;
73693;SDS011;61997;53.974;11.670;2023-11-19T00:43:06;12.75;;;8.10;;
73693;SDS011;61997;53.974;11.670;2023-11-19T00:45:32;15.02;;;7.93;;
73693;SDS011;61997;53.974;11.670;2023-11-19T00:47:57;15.48;;;8.55;;
73693;SDS011;61997;53.974;11.670;2023-11-19T00:50:24;13.45;;;7.63;;
73693;SDS011;61997;53.974;11.670;2023-11-19T00:52:50;12.48;;;7.60;;
73693;SDS011;61997;53.974;11.670;2023-11-19T00:55:16;11.82;;;7.63;;
73693;SDS011;61997;53.974;11.670;2023-11-19T00:57:42;13.35;;;7.18;;
73693;SDS011;61997;53.974;11.670;2023-11-19T01:00:08;14.23;;;7.90;;
73693;SDS011;61997;53.974;11.670;2023-11-19T01:02:43;13.07;;;6.78;;
73693;SDS011;61997;53.974;11.670;2023-11-19T01:05:08;12.32;;;6.78;;
73693;SDS011;61997;53.974;11.670;2023-11-19T01:07:34;12.25;;;7.30;;
73693;SDS011;61997;53.974;11.670;2023-11-19T01:09:59;13.35;;;6.70;;
73693;SDS011;61997;53.974;11.670;2023-11-19T01:12:24;15.43;;;8.50;;
73693;SDS011;61997;53.974;11.670;2023-11-19T01:14:50;11.82;;;7.60;;
73693;SDS011;61997;53.974;11.670;2023-11-19T01:17:15;10.88;;;7.00;;
73693;SDS011;61997;53.974;11.670;2023-11-19T01:19:41;13.55;;;7.13;;
73693;SDS011;61997;53.974;11.670;2023-11-19T01:22:06;13.80;;;7.65;;
73693;SDS011;61997;53.974;11.670;2023-11-19T01:24:32;9.80;;;7.00;;
73693;SDS011;61997;53.974;11.670;2023-11-19T01:26:57;14.30;;;7.45;;
73693;SDS011;61997;53.974;11.670;2023-11-19T01:29:24;13.23;;;7.05;;
73693;SDS011;61997;53.974;11.670;2023-11-19T01:31:50;12.95;;;6.90;;
73693;SDS011;61997;53.974;11.670;2023-11-19T01:34:18;10.90;;;6.85;;
73693;SDS011;61997;53.974;11.670;2023-11-19T01:36:43;12.57;;;7.63;;
73693;SDS011;61997;53.974;11.670;2023-11-19T01:39:09;11.60;;;7.35;;
73693;SDS011;61997;53.974;11.670;2023-11-19T01:41:35;11.93;;;7.15;;
73693;SDS011;61997;53.974;11.670;2023-11-19T01:44:01;11.80;;;6.43;;
73693;SDS011;61997;53.974;11.670;2023-11-19T01:46:26;12.10;;;6.25;;
73693;SDS011;61997;53.974;11.670;2023-11-19T01:48:52;12.57;;;6.53;;
73693;SDS011;61997;53.974;11.670;2023-11-19T01:51:17;11.65;;;6.75;;
73693;SDS011;61997;53.974;11.670;2023-11-19T01:53:43;12.60;;;6.95;;
73693;SDS011;61997;53.974;11.670;2023-11-19T01:56:09;12.27;;;6.63;;
73693;SDS011;61997;53.974;11.670;2023-11-19T01:58:35;9.50;;;6.28;;
73693;SDS011;61997;53.974;11.670;2023-11-19T02:01:01;13.02;;;6.72;;
73693;SDS011;61997;53.974;11.670;2023-11-19T02:03:29;12.10;;;6.80;;
73693;SDS011;61997;53.974;11.670;2023-11-19T02:05:59;11.30;;;6.45;;
73693;SDS011;61997;53.974;11.670;2023-11-19T02:08:24;10.93;;;6.55;;
73693;SDS011;61997;53.974;11.670;2023-11-19T02:10:51;12.45;;;6.32;;
73693;SDS011;61997;53.974;11.670;2023-11-19T02:13:17;12.50;;;6.38;;
73693;SDS011;61997;53.974;11.670;2023-11-19T02:15:42;11.05;;;5.78;;
73693;SDS011;61997;53.974;11.670;2023-11-19T02:20:43;10.98;;;6.53;;
73693;SDS011;61997;53.974;11.670;2023-11-19T02:23:09;12.23;;;6.60;;
73693;SDS011;61997;53.974;11.670;2023-11-19T02:25:34;12.70;;;6.38;;
73693;SDS011;61997;53.974;11.670;2023-11-19T02:28:01;10.32;;;5.90;;
73693;SDS011;61997;53.974;11.670;2023-11-19T02:30:27;10.15;;;6.40;;
73693;SDS011;61997;53.974;11.670;2023-11-19T02:32:56;10.00;;;6.47;;
73693;SDS011;61997;53.974;11.670;2023-11-19T02:35:23;13.73;;;7.10;;
73693;SDS011;61997;53.974;11.670;2023-11-19T02:37:51;12.65;;;6.80;;
73693;SDS011;61997;53.974;11.670;2023-11-19T02:40:17;10.40;;;5.57;;
73693;SDS011;61997;53.974;11.670;2023-11-19T02:42:42;10.45;;;5.55;;
73693;SDS011;61997;53.974;11.670;2023-11-19T02:45:08;10.57;;;6.18;;
73693;SDS011;61997;53.974;11.670;2023-11-19T02:47:39;8.90;;;5.65;;
73693;SDS011;61997;53.974;11.670;2023-11-19T02:50:08;10.73;;;6.25;;
73693;SDS011;61997;53.974;11.670;2023-11-19T02:52:39;11.20;;;6.22;;
73693;SDS011;61997;53.974;11.670;2023-11-19T02:55:09;10.93;;;6.10;;
73693;SDS011;61997;53.974;11.670;2023-11-19T02:57:37;11.48;;;6.60;;
73693;SDS011;61997;53.974;11.670;2023-11-19T03:00:03;10.43;;;6.22;;
73693;SDS011;61997;53.974;11.670;2023-11-19T03:02:39;10.18;;;5.68;;
73693;SDS011;61997;53.974;11.670;2023-11-19T03:05:10;11.85;;;5.95;;
73693;SDS011;61997;53.974;11.670;2023-11-19T03:07:36;10.65;;;5.68;;
73693;SDS011;61997;53.974;11.670;2023-11-19T03:10:02;9.95;;;5.45;;
73693;SDS011;61997;53.974;11.670;2023-11-19T03:12:30;9.90;;;5.97;;
73693;SDS011;61997;53.974;11.670;2023-11-19T03:14:56;12.50;;;6.00;;
73693;SDS011;61997;53.974;11.670;2023-11-19T03:17:21;10.43;;;5.22;;
73693;SDS011;61997;53.974;11.670;2023-11-19T03:19:46;11.27;;;5.53;;
73693;SDS011;61997;53.974;11.670;2023-11-19T03:22:13;11.90;;;6.13;;
73693;SDS011;61997;53.974;11.670;2023-11-19T03:24:39;10.80;;;5.80;;
73693;SDS011;61997;53.974;11.670;2023-11-19T03:27:04;8.75;;;5.15;;
73693;SDS011;61997;53.974;11.670;2023-11-19T03:29:30;7.78;;;5.32;;
73693;SDS011;61997;53.974;11.670;2023-11-19T03:31:55;10.02;;;5.07;;
73693;SDS011;61997;53.974;11.670;2023-11-19T03:34:20;8.93;;;5.88;;
73693;SDS011;61997;53.974;11.670;2023-11-19T03:36:46;10.40;;;5.47;;
73693;SDS011;61997;53.974;11.670;2023-11-19T03:39:12;8.18;;;5.18;;
73693;SDS011;61997;53.974;11.670;2023-11-19T03:41:37;11.15;;;6.35;;
73693;SDS011;61997;53.974;11.670;2023-11-19T03:44:02;9.65;;;5.65;;
73693;SDS011;61997;53.974;11.670;2023-11-19T03:46:28;9.02;;;5.85;;
73693;SDS011;61997;53.974;11.670;2023-11-19T03:48:55;9.63;;;4.78;;
73693;SDS011;61997;53.974;11.670;2023-11-19T03:51:20;8.07;;;5.15;;
73693;SDS011;61997;53.974;11.670;2023-11-19T03:53:45;8.85;;;5.38;;
73693;SDS011;61997;53.974;11.670;2023-11-19T03:56:11;9.32;;;4.90;;
73693;SDS011;61997;53.974;11.670;2023-11-19T03:58:37;11.52;;;5.65;;
73693;SDS011;61997;53.974;11.670;2023-11-19T04:01:03;10.20;;;5.13;;
73693;SDS011;61997;53.974;11.670;2023-11-19T04:03:32;9.32;;;5.00;;
73693;SDS011;61997;53.974;11.670;2023-11-19T04:05:57;9.73;;;5.40;;
73693;SDS011;61997;53.974;11.670;2023-11-19T04:08:22;9.60;;;5.25;;
73693;SDS011;61997;53.974;11.670;2023-11-19T04:10:48;8.30;;;5.30;;
73693;SDS011;61997;53.974;11.670;2023-11-19T04:13:13;7.32;;;4.30;;
73693;SDS011;61997;53.974;11.670;2023-11-19T04:15:38;8.95;;;4.95;;
73693;SDS011;61997;53.974;11.670;2023-11-19T04:18:04;6.75;;;4.60;;
73693;SDS011;61997;53.974;11.670;2023-11-19T04:20:29;9.45;;;5.88;;
73693;SDS011;61997;53.974;11.670;2023-11-19T04:22:56;6.45;;;5.03;;
73693;SDS011;61997;53.974;11.670;2023-11-19T04:25:22;8.50;;;5.10;;
73693;SDS011;61997;53.974;11.670;2023-11-19T04:27:47;8.15;;;4.55;;
73693;SDS011;61997;53.974;11.670;2023-11-19T04:30:13;6.97;;;4.75;;
73693;SDS011;61997;53.974;11.670;2023-11-19T04:32:38;8.02;;;4.97;;
73693;SDS011;61997;53.974;11.670;2023-11-19T04:35:04;8.80;;;4.32;;
73693;SDS011;61997;53.974;11.670;2023-11-19T04:37:31;7.25;;;4.53;;
73693;SDS011;61997;53.974;11.670;2023-11-19T04:39:57;8.32;;;4.63;;
73693;SDS011;61997;53.974;11.670;2023-11-19T04:42:22;9.57;;;5.07;;
73693;SDS011;61997;53.974;11.670;2023-11-19T04:44:48;8.75;;;4.35;;
73693;SDS011;61997;53.974;11.670;2023-11-19T04:47:13;7.57;;;4.40;;
73693;SDS011;61997;53.974;11.670;2023-11-19T04:49:42;9.30;;;4.70;;
73693;SDS011;61997;53.974;11.670;2023-11-19T04:52:10;7.68;;;4.63;;
73693;SDS011;61997;53.974;11.670;2023-11-19T04:54:40;8.05;;;4.25;;
73693;SDS011;61997;53.974;11.670;2023-11-19T04:57:07;5.97;;;3.83;;
73693;SDS011;61997;53.974;11.670;2023-11-19T04:59:34;6.72;;;3.95;;
73693;SDS011;61997;53.974;11.670;2023-11-19T05:02:00;6.93;;;4.07;;
73693;SDS011;61997;53.974;11.670;2023-11-19T05:04:25;7.07;;;4.38;;
73693;SDS011;61997;53.974;11.670;2023-11-19T05:06:51;8.10;;;4.70;;
73693;SDS011;61997;53.974;11.670;2023-11-19T05:09:16;8.63;;;4.15;;
73693;SDS011;61997;53.974;11.670;2023-11-19T05:11:41;8.43;;;4.15;;
73693;SDS011;61997;53.974;11.670;2023-11-19T05:14:08;6.07;;;3.95;;
73693;SDS011;61997;53.974;11.670;2023-11-19T05:16:34;6.90;;;4.40;;
73693;SDS011;61997;53.974;11.670;2023-11-19T05:19:00;8.20;;;4.10;;
73693;SDS011;61997;53.974;11.670;2023-11-19T05:21:25;6.93;;;4.47;;
73693;SDS011;61997;53.974;11.670;2023-11-19T05:23:51;6.57;;;4.07;;
73693;SDS011;61997;53.974;11.670;2023-11-19T05:26:20;7.60;;;4.15;;
73693;SDS011;61997;53.974;11.670;2023-11-19T05:28:46;6.20;;;3.75;;
73693;SDS011;61997;53.974;11.670;2023-11-19T05:31:12;6.57;;;4.10;;
73693;SDS011;61997;53.974;11.670;2023-11-19T05:33:37;7.40;;;4.00;;
73693;SDS011;61997;53.974;11.670;2023-11-19T05:36:03;5.63;;;3.25;;
73693;SDS011;61997;53.974;11.670;2023-11-19T05:38:29;8.25;;;3.85;;
73693;SDS011;61997;53.974;11.670;2023-11-19T05:40:54;6.72;;;4.07;;
73693;SDS011;61997;53.974;11.670;2023-11-19T05:43:20;5.57;;;3.35;;
73693;SDS011;61997;53.974;11.670;2023-11-19T05:45:46;6.30;;;3.80;;
73693;SDS011;61997;53.974;11.670;2023-11-19T05:48:11;5.18;;;3.05;;
73693;SDS011;61997;53.974;11.670;2023-11-19T05:50:37;7.22;;;4.07;;
73693;SDS011;61997;53.974;11.670;2023-11-19T05:53:03;7.15;;;3.70;;
73693;SDS011;61997;53.974;11.670;2023-11-19T05:55:33;6.60;;;3.38;;
73693;SDS011;61997;53.974;11.670;2023-11-19T05:57:59;6.88;;;3.67;;
73693;SDS011;61997;53.974;11.670;2023-11-19T06:00:24;6.45;;;3.60;;
73693;SDS011;61997;53.974;11.670;2023-11-19T06:02:51;5.72;;;3.72;;
73693;SDS011;61997;53.974;11.670;2023-11-19T06:05:17;5.80;;;2.92;;
73693;SDS011;61997;53.974;11.670;2023-11-19T06:07:42;7.47;;;3.67;;
73693;SDS011;61997;53.974;11.670;2023-11-19T06:10:07;6.18;;;3.88;;
73693;SDS011;61997;53.974;11.670;2023-11-19T06:12:34;6.07;;;3.28;;
73693;SDS011;61997;53.974;11.670;2023-11-19T06:15:03;6.00;;;3.10;;
73693;SDS011;61997;53.974;11.670;2023-11-19T06:17:30;7.10;;;3.88;;
73693;SDS011;61997;53.974;11.670;2023-11-19T06:19:55;5.53;;;2.92;;
73693;SDS011;61997;53.974;11.670;2023-11-19T06:22:20;5.20;;;3.50;;
73693;SDS011;61997;53.974;11.670;2023-11-19T06:24:46;5.88;;;3.08;;
73693;SDS011;61997;53.974;11.670;2023-11-19T06:27:11;5.10;;;3.30;;
73693;SDS011;61997;53.974;11.670;2023-11-19T06:29:36;4.75;;;2.70;;
73693;SDS011;61997;53.974;11.670;2023-11-19T06:32:02;4.70;;;2.92;;
73693;SDS011;61997;53.974;11.670;2023-11-19T06:34:27;6.35;;;3.25;;
73693;SDS011;61997;53.974;11.670;2023-11-19T06:36:53;5.05;;;3.13;;
73693;SDS011;61997;53.974;11.670;2023-11-19T06:39:18;3.70;;;2.58;;
73693;SDS011;61997;53.974;11.670;2023-11-19T06:41:45;5.85;;;3.08;;
73693;SDS011;61997;53.974;11.670;2023-11-19T06:44:11;6.05;;;3.33;;
73693;SDS011;61997;53.974;11.670;2023-11-19T06:46:36;5.38;;;2.45;;
73693;SDS011;61997;53.974;11.670;2023-11-19T06:49:02;4.97;;;3.03;;
73693;SDS011;61997;53.974;11.670;2023-11-19T06:51:27;5.03;;;2.97;;
73693;SDS011;61997;53.974;11.670;2023-11-19T06:53:54;6.72;;;3.25;;
73693;SDS011;61997;53.974;11.670;2023-11-19T06:56:20;6.13;;;3.05;;
73693;SDS011;61997;53.974;11.670;2023-11-19T06:58:47;5.00;;;2.72;;
73693;SDS011;61997;53.974;11.670;2023-11-19T07:01:13;4.88;;;2.85;;
73693;SDS011;61997;53.974;11.670;2023-11-19T07:03:40;4.38;;;2.70;;
73693;SDS011;61997;53.974;11.670;2023-11-19T07:06:05;6.07;;;3.08;;
73693;SDS011;61997;53.974;11.670;2023-11-19T07:08:31;4.75;;;2.53;;
73693;SDS011;61997;53.974;11.670;2023-11-19T07:10:56;4.63;;;2.45;;
73693;SDS011;61997;53.974;11.670;2023-11-19T07:13:21;4.85;;;2.53;;
73693;SDS011;61997;53.974;11.670;2023-11-19T07:15:47;5.53;;;2.70;;
73693;SDS011;61997;53.974;11.670;2023-11-19T07:18:12;4.72;;;2.63;;
73693;SDS011;61997;53.974;11.670;2023-11-19T07:20:39;3.90;;;2.17;;
73693;SDS011;61997;53.974;11.670;2023-11-19T07:23:05;5.13;;;2.72;;
73693;SDS011;61997;53.974;11.670;2023-11-19T07:25:31;4.90;;;2.65;;
73693;SDS011;61997;53.974;11.670;2023-11-19T07:27:56;4.43;;;2.30;;
73693;SDS011;61997;53.974;11.670;2023-11-19T07:30:22;5.35;;;3.10;;
73693;SDS011;61997;53.974;11.670;2023-11-19T07:32:47;4.57;;;2.38;;
73693;SDS011;61997;53.974;11.670;2023-11-19T07:35:13;4.45;;;2.60;;
73693;SDS011;61997;53.974;11.670;2023-11-19T07:37:40;3.97;;;2.55;;
73693;SDS011;61997;53.974;11.670;2023-11-19T07:40:06;3.78;;;2.17;;
73693;SDS011;61997;53.974;11.670;2023-11-19T07:42:32;5.00;;;2.85;;
73693;SDS011;61997;53.974;11.670;2023-11-19T07:44:57;5.47;;;2.65;;
73693;SDS011;61997;53.974;11.670;2023-11-19T07:47:23;4.55;;;2.50;;
73693;SDS011;61997;53.974;11.670;2023-11-19T07:49:49;3.83;;;2.30;;
73693;SDS011;61997;53.974;11.670;2023-11-19T07:52:15;4.88;;;2.50;;
73693;SDS011;61997;53.974;11.670;2023-11-19T07:54:41;5.40;;;1.98;;
73693;SDS011;61997;53.974;11.670;2023-11-19T07:57:06;4.38;;;2.42;;
73693;SDS011;61997;53.974;11.670;2023-11-19T07:59:31;5.10;;;2.40;;
73693;SDS011;61997;53.974;11.670;2023-11-19T08:01:57;4.63;;;2.22;;
73693;SDS011;61997;53.974;11.670;2023-11-19T08:04:23;4.57;;;2.50;;
73693;SDS011;61997;53.974;11.670;2023-11-19T08:06:49;4.22;;;2.50;;
73693;SDS011;61997;53.974;11.670;2023-11-19T08:09:14;4.22;;;2.22;;
73693;SDS011;61997;53.974;11.670;2023-11-19T08:11:40;3.85;;;2.38;;
73693;SDS011;61997;53.974;11.670;2023-11-19T08:14:06;4.55;;;2.17;;
73693;SDS011;61997;53.974;11.670;2023-11-19T08:16:31;4.32;;;2.25;;
73693;SDS011;61997;53.974;11.670;2023-11-19T08:18:56;4.90;;;2.22;;
73693;SDS011;61997;53.974;11.670;2023-11-19T08:21:23;3.13;;;1.92;;
73693;SDS011;61997;53.974;11.670;2023-11-19T08:23:48;3.65;;;2.20;;
73693;SDS011;61997;53.974;11.670;2023-11-19T08:26:14;4.03;;;2.17;;
73693;SDS011;61997;53.974;11.670;2023-11-19T08:28:40;3.58;;;2.45;;
73693;SDS011;61997;53.974;11.670;2023-11-19T08:31:05;4.38;;;2.10;;
73693;SDS011;61997;53.974;11.670;2023-11-19T08:33:31;4.38;;;2.28;;
73693;SDS011;61997;53.974;11.670;2023-11-19T08:35:56;3.53;;;2.00;;
73693;SDS011;61997;53.974;11.670;2023-11-19T08:38:23;4.55;;;2.60;;
73693;SDS011;61997;53.974;11.670;2023-11-19T08:40:49;3.22;;;2.13;;
73693;SDS011;61997;53.974;11.670;2023-11-19T08:43:14;3.70;;;2.05;;
73693;SDS011;61997;53.974;11.670;2023-11-19T08:45:39;3.22;;;1.67;;
73693;SDS011;61997;53.974;11.670;2023-11-19T08:48:05;3.63;;;1.90;;
73693;SDS011;61997;53.974;11.670;2023-11-19T08:50:30;3.47;;;2.10;;
73693;SDS011;61997;53.974;11.670;2023-11-19T08:52:56;2.97;;;1.98;;
73693;SDS011;61997;53.974;11.670;2023-11-19T08:55:21;3.75;;;1.90;;
73693;SDS011;61997;53.974;11.670;2023-11-19T08:57:46;3.10;;;2.20;;
73693;SDS011;61997;53.974;11.670;2023-11-19T09:00:12;2.97;;;1.90;;
73693;SDS011;61997;53.974;11.670;2023-11-19T09:02:39;3.63;;;2.10;;
73693;SDS011;61997;53.974;11.670;2023-11-19T09:05:05;3.75;;;1.90;;
73693;SDS011;61997;53.974;11.670;2023-11-19T09:07:32;4.05;;;1.85;;
73693;SDS011;61997;53.974;11.670;2023-11-19T09:09:58;3.58;;;1.80;;
73693;SDS011;61997;53.974;11.670;2023-11-19T09:12:23;2.75;;;1.88;;
73693;SDS011;61997;53.974;11.670;2023-11-19T09:14:49;4.05;;;2.00;;
73693;SDS011;61997;53.974;11.670;2023-11-19T09:17:16;2.97;;;1.77;;
73693;SDS011;61997;53.974;11.670;2023-11-19T09:19:43;3.22;;;1.73;;
73693;SDS011;61997;53.974;11.670;2023-11-19T09:22:10;3.40;;;1.85;;
73693;SDS011;61997;53.974;11.670;2023-11-19T09:24:36;2.55;;;1.75;;
73693;SDS011;61997;53.974;11.670;2023-11-19T09:27:02;3.47;;;1.83;;
73693;SDS011;61997;53.974;11.670;2023-11-19T09:29:27;4.13;;;2.20;;
73693;SDS011;61997;53.974;11.670;2023-11-19T09:31:53;5.07;;;2.45;;
73693;SDS011;61997;53.974;11.670;2023-11-19T09:34:19;3.33;;;1.58;;
73693;SDS011;61997;53.974;11.670;2023-11-19T09:36:45;3.22;;;1.63;;
73693;SDS011;61997;53.974;11.670;2023-11-19T09:39:11;3.92;;;2.00;;
73693;SDS011;61997;53.974;11.670;2023-11-19T09:41:39;3.30;;;1.48;;
73693;SDS011;61997;53.974;11.670;2023-11-19T09:44:07;3.65;;;1.70;;
73693;SDS011;61997;53.974;11.670;2023-11-19T09:46:34;4.30;;;1.70;;
73693;SDS011;61997;53.974;11.670;2023-11-19T09:49:00;2.97;;;1.60;;
73693;SDS011;61997;53.974;11.670;2023-11-19T09:51:26;2.85;;;1.80;;
73693;SDS011;61997;53.974;11.670;2023-11-19T09:53:53;2.70;;;1.60;;
73693;SDS011;61997;53.974;11.670;2023-11-19T09:56:18;3.40;;;1.75;;
73693;SDS011;61997;53.974;11.670;2023-11-19T09:58:44;3.88;;;1.67;;
73693;SDS011;61997;53.974;11.670;2023-11-19T10:01:09;3.65;;;1.80;;
73693;SDS011;61997;53.974;11.670;2023-11-19T10:03:37;3.45;;;1.80;;
73693;SDS011;61997;53.974;11.670;2023-11-19T10:06:06;3.13;;;1.80;;
73693;SDS011;61997;53.974;11.670;2023-11-19T10:08:32;3.60;;;1.75;;
73693;SDS011;61997;53.974;11.670;2023-11-19T10:10:58;3.08;;;1.58;;
73693;SDS011;61997;53.974;11.670;2023-11-19T10:13:28;4.30;;;2.00;;
73693;SDS011;61997;53.974;11.670;2023-11-19T10:15:55;3.80;;;1.80;;
73693;SDS011;61997;53.974;11.670;2023-11-19T10:18:24;4.60;;;2.25;;
73693;SDS011;61997;53.974;11.670;2023-11-19T10:20:51;3.55;;;2.20;;
73693;SDS011;61997;53.974;11.670;2023-11-19T10:23:16;6.15;;;2.90;;
73693;SDS011;61997;53.974;11.670;2023-11-19T10:25:41;5.63;;;2.33;;
73693;SDS011;61997;53.974;11.670;2023-11-19T10:28:07;5.25;;;2.83;;
73693;SDS011;61997;53.974;11.670;2023-11-19T10:30:34;4.63;;;2.92;;
73693;SDS011;61997;53.974;11.670;2023-11-19T10:33:10;8.43;;;3.58;;
73693;SDS011;61997;53.974;11.670;2023-11-19T10:35:56;6.43;;;3.40;;
73693;SDS011;61997;53.974;11.670;2023-11-19T10:38:23;7.68;;;3.28;;
73693;SDS011;61997;53.974;11.670;2023-11-19T10:40:49;7.00;;;3.85;;
73693;SDS011;61997;53.974;11.670;2023-11-19T10:43:16;8.60;;;3.53;;
73693;SDS011;61997;53.974;11.670;2023-11-19T10:45:42;7.60;;;4.30;;
73693;SDS011;61997;53.974;11.670;2023-11-19T10:48:07;8.65;;;4.65;;
73693;SDS011;61997;53.974;11.670;2023-11-19T10:50:33;8.73;;;4.00;;
73693;SDS011;61997;53.974;11.670;2023-11-19T10:53:00;8.35;;;4.40;;
73693;SDS011;61997;53.974;11.670;2023-11-19T10:55:31;8.68;;;4.15;;
73693;SDS011;61997;53.974;11.670;2023-11-19T10:58:12;10.52;;;4.50;;
73693;SDS011;61997;53.974;11.670;2023-11-19T11:00:45;10.02;;;4.57;;
73693;SDS011;61997;53.974;11.670;2023-11-19T11:03:21;8.52;;;4.60;;
73693;SDS011;61997;53.974;11.670;2023-11-19T11:05:52;8.40;;;4.80;;
73693;SDS011;61997;53.974;11.670;2023-11-19T11:08:18;8.25;;;4.65;;
73693;SDS011;61997;53.974;11.670;2023-11-19T11:10:48;8.77;;;5.22;;
73693;SDS011;61997;53.974;11.670;2023-11-19T11:13:20;9.98;;;5.28;;
73693;SDS011;61997;53.974;11.670;2023-11-19T11:15:47;11.60;;;5.78;;
73693;SDS011;61997;53.974;11.670;2023-11-19T11:18:13;9.10;;;5.15;;
73693;SDS011;61997;53.974;11.670;2023-11-19T11:20:39;12.52;;;6.38;;
73693;SDS011;61997;53.974;11.670;2023-11-19T11:25:56;12.45;;;6.43;;
73693;SDS011;61997;53.974;11.670;2023-11-19T11:28:39;17.08;;;7.72;;
73693;SDS011;61997;53.974;11.670;2023-11-19T11:31:11;15.93;;;7.40;;
73693;SDS011;61997;53.974;11.670;2023-11-19T11:33:56;13.45;;;7.43;;
73693;SDS011;61997;53.974;11.670;2023-11-19T11:36:37;16.38;;;7.22;;
73693;SDS011;61997;53.974;11.670;2023-11-19T11:39:13;14.73;;;8.30;;
73693;SDS011;61997;53.974;11.670;2023-11-19T11:41:40;16.17;;;7.95;;
73693;SDS011;61997;53.974;11.670;2023-11-19T11:44:05;12.82;;;7.28;;
73693;SDS011;61997;53.974;11.670;2023-11-19T11:49:05;17.20;;;8.68;;
73693;SDS011;61997;53.974;11.670;2023-11-19T11:54:30;14.50;;;7.55;;
73693;SDS011;61997;53.974;11.670;2023-11-19T11:59:31;14.43;;;7.78;;
73693;SDS011;61997;53.974;11.670;2023-11-19T12:02:18;18.60;;;8.55;;
73693;SDS011;61997;53.974;11.670;2023-11-19T12:04:46;15.05;;;8.18;;
73693;SDS011;61997;53.974;11.670;2023-11-19T12:07:14;16.50;;;8.45;;
73693;SDS011;61997;53.974;11.670;2023-11-19T12:09:41;14.43;;;7.25;;
73693;SDS011;61997;53.974;11.670;2023-11-19T12:12:20;13.80;;;6.88;;
73693;SDS011;61997;53.974;11.670;2023-11-19T12:22:27;17.17;;;7.53;;
73693;SDS011;61997;53.974;11.670;2023-11-19T12:24:53;15.50;;;7.75;;
73693;SDS011;61997;53.974;11.670;2023-11-19T12:27:20;14.05;;;7.55;;
73693;SDS011;61997;53.974;11.670;2023-11-19T12:29:51;12.95;;;7.47;;
73693;SDS011;61997;53.974;11.670;2023-11-19T12:32:17;16.35;;;7.28;;
73693;SDS011;61997;53.974;11.670;2023-11-19T12:34:42;13.27;;;7.15;;
73693;SDS011;61997;53.974;11.670;2023-11-19T12:37:09;15.38;;;6.30;;
73693;SDS011;61997;53.974;11.670;2023-11-19T12:39:36;14.35;;;6.85;;
73693;SDS011;61997;53.974;11.670;2023-11-19T12:42:03;11.15;;;6.43;;
73693;SDS011;61997;53.974;11.670;2023-11-19T12:44:28;12.60;;;6.95;;
73693;SDS011;61997;53.974;11.670;2023-11-19T12:47:05;18.98;;;7.18;;
73693;SDS011;61997;53.974;11.670;2023-11-19T12:49:36;13.27;;;6.70;;
73693;SDS011;61997;53.974;11.670;2023-11-19T12:52:02;13.48;;;6.00;;
73693;SDS011;61997;53.974;11.670;2023-11-19T12:54:39;10.15;;;5.88;;
73693;SDS011;61997;53.974;11.670;2023-11-19T12:57:07;14.68;;;6.45;;
73693;SDS011;61997;53.974;11.670;2023-11-19T12:59:33;12.35;;;5.88;;
73693;SDS011;61997;53.974;11.670;2023-11-19T13:02:00;12.90;;;5.68;;
73693;SDS011;61997;53.974;11.670;2023-11-19T13:04:28;10.30;;;5.70;;
73693;SDS011;61997;53.974;11.670;2023-11-19T13:06:56;12.45;;;6.05;;
73693;SDS011;61997;53.974;11.670;2023-11-19T13:09:23;11.82;;;5.82;;
73693;SDS011;61997;53.974;11.670;2023-11-19T13:11:49;9.73;;;5.72;;
73693;SDS011;61997;53.974;11.670;2023-11-19T13:14:15;9.05;;;4.38;;
73693;SDS011;61997;53.974;11.670;2023-11-19T13:16:42;10.43;;;5.10;;
73693;SDS011;61997;53.974;11.670;2023-11-19T13:19:07;11.70;;;4.88;;
73693;SDS011;61997;53.974;11.670;2023-11-19T13:21:33;10.52;;;5.43;;
73693;SDS011;61997;53.974;11.670;2023-11-19T13:23:59;9.95;;;4.50;;
73693;SDS011;61997;53.974;11.670;2023-11-19T13:26:24;7.88;;;4.65;;
73693;SDS011;61997;53.974;11.670;2023-11-19T13:28:50;9.80;;;4.85;;
73693;SDS011;61997;53.974;11.670;2023-11-19T13:31:15;9.73;;;4.35;;
73693;SDS011;61997;53.974;11.670;2023-11-19T13:33:41;9.05;;;4.20;;
73693;SDS011;61997;53.974;11.670;2023-11-19T13:36:07;12.82;;;5.10;;
73693;SDS011;61997;53.974;11.670;2023-11-19T13:38:36;11.93;;;4.43;;
73693;SDS011;61997;53.974;11.670;2023-11-19T13:41:02;9.68;;;4.65;;
73693;SDS011;61997;53.974;11.670;2023-11-19T13:43:29;10.55;;;4.53;;
73693;SDS011;61997;53.974;11.670;2023-11-19T13:45:55;9.73;;;4.38;;
73693;SDS011;61997;53.974;11.670;2023-11-19T13:48:25;8.98;;;4.00;;
73693;SDS011;61997;53.974;11.670;2023-11-19T13:50:54;9.02;;;4.00;;
73693;SDS011;61997;53.974;11.670;2023-11-19T13:53:20;8.15;;;3.65;;
73693;SDS011;61997;53.974;11.670;2023-11-19T13:55:47;7.72;;;4.47;;
73693;SDS011;61997;53.974;11.670;2023-11-19T13:58:14;7.93;;;4.18;;
73693;SDS011;61997;53.974;11.670;2023-11-19T14:00:41;7.85;;;4.00;;
73693;SDS011;61997;53.974;11.670;2023-11-19T14:03:07;9.80;;;3.83;;
73693;SDS011;61997;53.974;11.670;2023-11-19T14:05:32;7.53;;;3.83;;
73693;SDS011;61997;53.974;11.670;2023-11-19T14:07:58;9.80;;;4.47;;
73693;SDS011;61997;53.974;11.670;2023-11-19T14:10:23;8.70;;;3.53;;
73693;SDS011;61997;53.974;11.670;2023-11-19T14:12:49;8.60;;;4.47;;
73693;SDS011;61997;53.974;11.670;2023-11-19T14:15:17;7.85;;;3.50;;
73693;SDS011;61997;53.974;11.670;2023-11-19T14:17:43;9.10;;;3.83;;
73693;SDS011;61997;53.974;11.670;2023-11-19T14:20:08;7.72;;;4.10;;
73693;SDS011;61997;53.974;11.670;2023-11-19T14:22:45;7.00;;;3.75;;
73693;SDS011;61997;53.974;11.670;2023-11-19T14:25:14;5.80;;;3.17;;
73693;SDS011;61997;53.974;11.670;2023-11-19T14:27:40;8.43;;;3.85;;
73693;SDS011;61997;53.974;11.670;2023-11-19T14:30:07;6.68;;;3.10;;
73693;SDS011;61997;53.974;11.670;2023-11-19T14:32:37;7.57;;;3.20;;
73693;SDS011;61997;53.974;11.670;2023-11-19T14:35:03;7.97;;;3.38;;
73693;SDS011;61997;53.974;11.670;2023-11-19T14:37:29;6.38;;;3.22;;
73693;SDS011;61997;53.974;11.670;2023-11-19T14:39:58;9.75;;;3.75;;
73693;SDS011;61997;53.974;11.670;2023-11-19T14:42:24;7.38;;;3.58;;
73693;SDS011;61997;53.974;11.670;2023-11-19T14:44:50;7.70;;;3.10;;
73693;SDS011;61997;53.974;11.670;2023-11-19T14:47:18;7.13;;;3.75;;
73693;SDS011;61997;53.974;11.670;2023-11-19T14:49:43;8.02;;;3.50;;